Time;durP1;ratioP1;P1;durP2;ratioP2;P2;SDS_P1;SDS_P2;PMS_P1;PMS_P2;Temp;Humidity;BMP_temperature;BMP_pressure;BME280_temperature;BME280_humidity;BME280_pressure;Samples;Min_cycle;Max_cycle;Signal;HPM_P1;HPM_P2
2023/11/05 00:00:12;;;;;;;0.90;0.50;;;16.10;69.00;;;;;;4995642;28;20050;-57
2023/11/05 00:02:37;;;;;;;0.93;0.50;;;16.10;69.00;;;;;;5000982;28;20049;-54
2023/11/05 00:05:03;;;;;;;0.63;0.50;;;16.10;68.90;;;;;;4997821;28;20113;-57
2023/11/05 00:07:29;;;;;;;0.60;0.50;;;16.10;68.90;;;;;;4996192;28;20156;-57
2023/11/05 00:09:54;;;;;;;0.63;0.47;;;16.10;68.90;;;;;;5002019;28;20087;-56
2023/11/05 00:12:20;;;;;;;0.50;0.40;;;16.10;68.90;;;;;;5001756;28;20048;-58
2023/11/05 00:14:45;;;;;;;1.92;0.52;;;16.10;68.90;;;;;;4999097;28;20038;-55
2023/11/05 00:17:11;;;;;;;0.70;0.40;;;16.10;68.90;;;;;;4997120;28;20030;-57
2023/11/05 00:19:36;;;;;;;0.75;0.38;;;16.10;69.00;;;;;;4999607;28;20619;-54
2023/11/05 00:22:02;;;;;;;1.58;0.35;;;16.10;69.00;;;;;;5001183;28;20041;-56
2023/11/05 00:24:27;;;;;;;0.40;0.38;;;16.10;69.00;;;;;;4992363;28;20116;-58
2023/11/05 00:26:53;;;;;;;0.77;0.30;;;16.10;69.00;;;;;;4998319;28;20542;-59
2023/11/05 00:29:19;;;;;;;0.43;0.25;;;16.10;69.00;;;;;;4996439;28;20029;-57
2023/11/05 00:31:44;;;;;;;0.43;0.35;;;16.10;68.90;;;;;;4997774;28;20029;-56
2023/11/05 00:34:10;;;;;;;1.45;0.50;;;16.10;68.90;;;;;;4995584;28;20033;-59
2023/11/05 00:36:36;;;;;;;0.52;0.50;;;16.10;69.20;;;;;;4997204;28;20085;-63
2023/11/05 00:39:01;;;;;;;0.40;0.30;;;16.10;68.90;;;;;;5001130;28;20044;-58
2023/11/05 00:41:27;;;;;;;0.50;0.40;;;16.10;69.00;;;;;;4998891;28;20046;-57
2023/11/05 00:43:52;;;;;;;0.50;0.38;;;16.10;69.00;;;;;;4999229;28;20037;-57
2023/11/05 00:46:18;;;;;;;0.68;0.30;;;16.10;68.90;;;;;;4994799;28;20034;-56
2023/11/05 00:48:44;;;;;;;0.77;0.43;;;16.10;68.90;;;;;;4996319;28;20038;-59
2023/11/05 00:51:09;;;;;;;0.40;0.40;;;16.10;69.00;;;;;;5001655;28;20176;-55
2023/11/05 00:53:35;;;;;;;0.40;0.30;;;16.10;68.90;;;;;;4998702;28;20621;-57
2023/11/05 00:56:00;;;;;;;0.55;0.50;;;16.10;68.90;;;;;;4993465;28;20030;-58
2023/11/05 00:58:26;;;;;;;0.85;0.38;;;16.10;68.90;;;;;;4995124;28;20034;-58
2023/11/05 01:00:52;;;;;;;0.98;0.40;;;16.10;68.90;;;;;;5007725;28;20034;-51
2023/11/05 01:03:17;;;;;;;0.55;0.40;;;16.10;68.90;;;;;;4989532;28;20107;-56
2023/11/05 01:05:43;;;;;;;0.50;0.40;;;16.10;68.90;;;;;;5006594;28;20057;-57
2023/11/05 01:08:08;;;;;;;0.30;0.30;;;16.10;68.90;;;;;;4999128;28;20030;-58
2023/11/05 01:10:34;;;;;;;0.68;0.38;;;16.10;68.90;;;;;;4998530;28;20797;-57
2023/11/05 01:13:00;;;;;;;1.08;0.40;;;16.10;68.90;;;;;;4998731;28;20426;-56
2023/11/05 01:15:26;;;;;;;0.47;0.40;;;16.10;68.90;;;;;;4996477;28;21526;-53
2023/11/05 01:17:51;;;;;;;0.50;0.30;;;16.10;68.90;;;;;;5003209;28;20116;-58
2023/11/05 01:20:17;;;;;;;0.60;0.40;;;16.10;68.90;;;;;;5000715;28;20026;-54
2023/11/05 01:22:42;;;;;;;0.40;0.40;;;16.10;68.90;;;;;;4996256;28;20054;-56
2023/11/05 01:25:08;;;;;;;0.85;0.40;;;16.10;68.90;;;;;;4995037;28;20040;-55
2023/11/05 01:27:34;;;;;;;0.30;0.30;;;16.10;68.90;;;;;;4995957;28;20037;-56
2023/11/05 01:29:59;;;;;;;0.60;0.57;;;16.10;68.90;;;;;;4994457;28;20037;-55
2023/11/05 01:32:25;;;;;;;0.60;0.47;;;16.10;68.90;;;;;;4997699;28;20554;-56
2023/11/05 01:34:50;;;;;;;0.60;0.40;;;16.10;68.90;;;;;;4999016;28;20022;-58
2023/11/05 01:37:16;;;;;;;1.25;0.40;;;16.10;68.90;;;;;;4999809;28;20038;-57
2023/11/05 01:39:41;;;;;;;0.50;0.30;;;16.10;68.90;;;;;;4996063;28;20488;-59
2023/11/05 01:42:07;;;;;;;0.40;0.30;;;16.10;68.90;;;;;;4998482;28;20057;-59
2023/11/05 01:44:33;;;;;;;0.30;0.30;;;16.10;68.90;;;;;;5000531;28;20040;-58
2023/11/05 01:46:59;;;;;;;0.90;0.50;;;16.10;68.90;;;;;;4998829;28;20501;-58
2023/11/05 01:49:26;;;;;;;0.50;0.40;;;16.10;68.90;;;;;;4998691;28;20050;-59
2023/11/05 01:51:52;;;;;;;0.90;0.40;;;16.10;68.90;;;;;;4998053;28;20119;-56
2023/11/05 01:54:18;;;;;;;0.25;0.25;;;16.10;68.90;;;;;;4995810;28;20034;-58
2023/11/05 01:56:44;;;;;;;0.35;0.30;;;16.10;68.90;;;;;;4995291;28;20077;-58
2023/11/05 01:59:10;;;;;;;0.57;0.40;;;16.10;68.90;;;;;;4993519;28;20057;-57
2023/11/05 02:01:36;;;;;;;0.30;0.30;;;16.10;68.90;;;;;;4995758;28;20057;-56
2023/11/05 02:04:02;;;;;;;0.82;0.40;;;16.10;68.90;;;;;;4997826;28;20037;-56
2023/11/05 02:06:28;;;;;;;0.82;0.50;;;16.10;68.90;;;;;;4999812;28;20041;-57
2023/11/05 02:08:53;;;;;;;0.40;0.30;;;16.10;68.90;;;;;;5003650;28;20030;-56
2023/11/05 02:11:19;;;;;;;0.73;0.35;;;16.10;68.90;;;;;;4994879;28;20534;-56
2023/11/05 02:13:46;;;;;;;0.55;0.30;;;16.10;68.90;;;;;;5002679;28;20030;-56
2023/11/05 02:16:12;;;;;;;0.43;0.38;;;16.10;68.90;;;;;;5001428;28;20501;-57
2023/11/05 02:18:38;;;;;;;0.32;0.30;;;16.10;68.90;;;;;;4998897;28;20029;-58
2023/11/05 02:21:05;;;;;;;1.33;0.40;;;16.10;68.90;;;;;;4997883;28;20018;-56
2023/11/05 02:23:32;;;;;;;0.60;0.40;;;16.10;68.90;;;;;;4997856;28;20400;-58
2023/11/05 02:25:57;;;;;;;0.50;0.30;;;16.10;68.90;;;;;;4995321;28;20948;-57
2023/11/05 02:28:23;;;;;;;0.55;0.40;;;16.10;68.90;;;;;;4994767;28;20030;-56
2023/11/05 02:30:54;;;;;;;0.70;0.47;;;16.10;68.90;;;;;;4996432;28;20030;-55
2023/11/05 02:33:20;;;;;;;0.50;0.40;;;16.10;68.90;;;;;;4993428;28;20483;-59
2023/11/05 02:35:46;;;;;;;0.68;0.40;;;16.10;68.80;;;;;;5001437;28;20165;-59
2023/11/05 02:38:11;;;;;;;0.30;0.30;;;16.10;68.80;;;;;;4999964;28;20109;-58
2023/11/05 02:40:37;;;;;;;0.40;0.38;;;16.10;68.80;;;;;;4998263;28;20418;-54
2023/11/05 02:43:03;;;;;;;0.88;0.30;;;16.10;68.80;;;;;;5004020;28;20578;-58
2023/11/05 02:45:28;;;;;;;0.57;0.50;;;16.10;68.90;;;;;;5001761;28;20038;-59
2023/11/05 02:47:54;;;;;;;0.93;0.30;;;16.10;68.90;;;;;;5001792;28;20033;-55
2023/11/05 02:50:19;;;;;;;0.40;0.30;;;16.10;68.90;;;;;;4997729;28;20693;-57
2023/11/05 02:52:45;;;;;;;0.47;0.30;;;16.10;68.90;;;;;;4996707;28;20703;-54
2023/11/05 02:55:10;;;;;;;0.20;0.20;;;16.10;68.90;;;;;;4994558;28;20109;-56
2023/11/05 02:57:37;;;;;;;0.65;0.30;;;16.10;68.90;;;;;;4996301;28;20033;-58
2023/11/05 03:00:10;;;;;;;0.40;0.40;;;16.00;68.80;;;;;;4994845;28;20030;-57
2023/11/05 03:02:36;;;;;;;0.45;0.30;;;16.00;68.80;;;;;;4991474;28;20034;-54
2023/11/05 03:05:03;;;;;;;0.32;0.32;;;16.10;68.90;;;;;;4984312;28;20040;-52
2023/11/05 03:07:30;;;;;;;0.50;0.30;;;16.10;68.90;;;;;;4976221;28;20045;-56
2023/11/05 03:09:55;;;;;;;1.65;0.30;;;16.10;68.90;;;;;;5000016;28;20030;-55
2023/11/05 03:12:21;;;;;;;0.68;0.40;;;16.10;68.90;;;;;;5001011;28;20033;-54
2023/11/05 03:14:46;;;;;;;0.82;0.40;;;16.00;68.90;;;;;;4999115;28;20038;-62
2023/11/05 03:17:12;;;;;;;0.20;0.20;;;16.10;68.90;;;;;;5000195;28;20034;-57
2023/11/05 03:19:38;;;;;;;0.45;0.32;;;16.00;68.80;;;;;;4998690;28;20435;-56
2023/11/05 03:22:05;;;;;;;0.30;0.30;;;16.00;68.80;;;;;;4997324;28;20026;-56
2023/11/05 03:24:31;;;;;;;0.38;0.30;;;16.10;68.90;;;;;;4999990;28;20121;-57
2023/11/05 03:26:56;;;;;;;0.45;0.35;;;16.00;68.80;;;;;;4996274;28;20518;-58
2023/11/05 03:29:22;;;;;;;0.20;0.20;;;16.00;68.80;;;;;;5000724;28;20072;-57
2023/11/05 03:31:49;;;;;;;0.25;0.25;;;16.00;68.80;;;;;;4997843;28;20037;-56
2023/11/05 03:34:15;;;;;;;0.40;0.30;;;16.00;68.80;;;;;;5005125;28;20026;-58
2023/11/05 03:36:40;;;;;;;0.43;0.20;;;16.10;68.90;;;;;;5002489;28;20049;-58
2023/11/05 03:39:06;;;;;;;0.20;0.20;;;16.10;68.90;;;;;;5003033;28;20026;-55
2023/11/05 03:41:32;;;;;;;0.63;0.30;;;16.00;68.80;;;;;;5053820;23;20042;-69
2023/11/05 03:43:58;;;;;;;0.43;0.30;;;16.10;68.90;;;;;;5025578;28;20254;-69
2023/11/05 03:46:24;;;;;;;0.38;0.22;;;16.00;68.80;;;;;;5022685;28;20170;-69
2023/11/05 03:48:49;;;;;;;0.28;0.20;;;16.00;68.80;;;;;;5024193;28;20025;-69
2023/11/05 03:51:16;;;;;;;0.30;0.28;;;16.10;68.80;;;;;;5024643;28;20014;-69
2023/11/05 03:53:41;;;;;;;0.22;0.22;;;16.10;68.80;;;;;;5024156;28;20474;-69
2023/11/05 03:56:09;;;;;;;0.55;0.30;;;16.10;68.80;;;;;;5020756;28;20040;-69
2023/11/05 03:58:34;;;;;;;0.28;0.20;;;16.00;68.80;;;;;;5023645;28;20049;-69
2023/11/05 04:01:00;;;;;;;0.30;0.30;;;16.00;68.80;;;;;;5021861;28;20026;-69
2023/11/05 04:03:25;;;;;;;0.45;0.30;;;16.00;68.80;;;;;;5025750;28;20032;-69
2023/11/05 04:05:52;;;;;;;0.35;0.30;;;16.00;68.80;;;;;;5025496;28;20029;-69
2023/11/05 04:08:17;;;;;;;0.20;0.20;;;16.00;68.80;;;;;;5025857;28;20079;-69
2023/11/05 04:10:43;;;;;;;1.08;0.20;;;16.10;68.90;;;;;;5023775;28;20115;-69
2023/11/05 04:13:08;;;;;;;0.25;0.25;;;16.00;68.80;;;;;;5023043;28;20031;-69
2023/11/05 04:15:34;;;;;;;0.30;0.20;;;16.00;68.90;;;;;;5021516;28;20034;-71
2023/11/05 04:17:59;;;;;;;0.35;0.30;;;16.00;68.80;;;;;;5024048;28;20361;-69
2023/11/05 04:20:25;;;;;;;0.73;0.28;;;16.00;68.80;;;;;;5023459;28;20394;-69
2023/11/05 04:22:51;;;;;;;0.30;0.30;;;16.00;68.80;;;;;;5023020;28;20403;-68
2023/11/05 04:25:16;;;;;;;0.57;0.30;;;16.00;68.80;;;;;;5021002;28;20692;-68
2023/11/05 04:27:42;;;;;;;0.68;0.35;;;16.00;68.80;;;;;;5022868;28;20039;-68
2023/11/05 04:30:09;;;;;;;0.57;0.25;;;16.00;69.40;;;;;;5019341;28;20038;-69
2023/11/05 04:32:34;;;;;;;1.05;0.30;;;16.00;68.80;;;;;;5022838;28;20063;-69
2023/11/05 04:34:59;;;;;;;0.40;0.30;;;16.00;68.80;;;;;;5023488;28;20026;-68
2023/11/05 04:37:26;;;;;;;0.30;0.30;;;16.00;68.80;;;;;;5023799;28;20041;-69
2023/11/05 04:39:51;;;;;;;0.50;0.30;;;16.00;68.80;;;;;;5022837;28;20079;-69
2023/11/05 04:42:17;;;;;;;0.63;0.30;;;16.00;68.80;;;;;;5022902;28;20034;-69
2023/11/05 04:44:42;;;;;;;0.20;0.20;;;16.00;68.80;;;;;;5022392;28;20040;-68
2023/11/05 04:47:08;;;;;;;0.35;0.35;;;16.00;68.80;;;;;;5020823;28;20491;-69
2023/11/05 04:49:33;;;;;;;0.65;0.65;;;16.00;68.80;;;;;;5020981;28;20033;-69
2023/11/05 04:51:59;;;;;;;0.40;0.30;;;16.00;68.80;;;;;;5018942;28;20099;-69
2023/11/05 04:54:25;;;;;;;0.35;0.30;;;16.00;68.80;;;;;;5019383;28;20048;-69
2023/11/05 04:56:50;;;;;;;0.55;0.30;;;16.00;68.80;;;;;;5020708;28;20140;-69
2023/11/05 04:59:16;;;;;;;0.40;0.30;;;16.00;68.80;;;;;;5016255;28;20056;-69
2023/11/05 05:01:41;;;;;;;0.20;0.20;;;16.00;68.80;;;;;;5022093;28;20116;-68
2023/11/05 05:04:08;;;;;;;0.28;0.20;;;16.00;68.80;;;;;;5024431;28;20033;-68
2023/11/05 05:06:33;;;;;;;0.47;0.20;;;16.00;68.80;;;;;;5024140;28;20026;-68
2023/11/05 05:08:59;;;;;;;0.30;0.28;;;16.00;68.80;;;;;;5023821;28;20029;-68
2023/11/05 05:11:24;;;;;;;0.32;0.30;;;16.00;68.80;;;;;;5022298;28;20112;-68
2023/11/05 05:13:50;;;;;;;0.75;0.20;;;16.00;68.80;;;;;;5023471;28;20026;-66
2023/11/05 05:16:19;;;;;;;0.75;0.35;;;16.00;68.80;;;;;;5021558;28;20403;-67
2023/11/05 05:18:44;;;;;;;0.38;0.30;;;16.00;68.80;;;;;;5020297;28;20415;-67
2023/11/05 05:21:10;;;;;;;0.25;0.25;;;16.00;68.80;;;;;;5020816;28;20052;-70
2023/11/05 05:23:35;;;;;;;0.25;0.15;;;16.00;68.80;;;;;;5020908;28;20113;-65
2023/11/05 05:26:02;;;;;;;0.30;0.30;;;16.00;68.90;;;;;;5020012;28;20060;-67
2023/11/05 05:28:28;;;;;;;0.20;0.20;;;16.00;68.90;;;;;;5021868;28;20508;-69
2023/11/05 05:30:54;;;;;;;0.20;0.20;;;16.00;68.90;;;;;;5023550;28;20109;-69
2023/11/05 05:33:19;;;;;;;0.25;0.20;;;16.00;68.80;;;;;;5023746;28;20026;-69
2023/11/05 05:35:45;;;;;;;0.55;0.30;;;16.00;68.90;;;;;;5023627;28;20477;-68
2023/11/05 05:38:11;;;;;;;0.32;0.30;;;16.00;68.90;;;;;;5024070;28;20431;-69
2023/11/05 05:40:36;;;;;;;2.17;0.20;;;16.00;68.80;;;;;;5021213;28;20037;-69
2023/11/05 05:43:02;;;;;;;0.20;0.20;;;16.00;68.90;;;;;;5022164;28;20083;-67
2023/11/05 05:45:28;;;;;;;0.65;0.40;;;16.00;68.90;;;;;;5021313;28;20034;-68
2023/11/05 05:47:53;;;;;;;0.70;0.40;;;16.00;68.90;;;;;;5020953;28;20029;-66
2023/11/05 05:50:19;;;;;;;0.40;0.40;;;16.00;68.80;;;;;;5019772;28;20387;-70
2023/11/05 05:52:45;;;;;;;0.60;0.30;;;16.00;68.80;;;;;;5019098;28;20403;-69
2023/11/05 05:55:14;;;;;;;0.80;0.25;;;16.00;68.90;;;;;;5017459;28;20113;-66
2023/11/05 05:57:40;;;;;;;0.43;0.20;;;16.00;68.90;;;;;;5020213;28;20037;-65
2023/11/05 06:00:09;;;;;;;0.20;0.20;;;16.00;68.90;;;;;;5022781;28;20140;-69
2023/11/05 06:02:35;;;;;;;0.55;0.38;;;16.00;68.80;;;;;;5024499;28;20028;-69
2023/11/05 06:05:00;;;;;;;0.45;0.20;;;16.00;68.80;;;;;;5023278;28;20029;-69
2023/11/05 06:07:31;;;;;;;0.28;0.28;;;16.00;68.80;;;;;;5019811;28;20040;-68
2023/11/05 06:09:59;;;;;;;0.20;0.20;;;16.00;68.80;;;;;;5021141;28;20423;-68
2023/11/05 06:12:25;;;;;;;0.30;0.20;;;16.00;68.90;;;;;;5019994;28;20419;-67
2023/11/05 06:14:50;;;;;;;0.20;0.20;;;16.00;68.90;;;;;;5023614;28;20340;-67
2023/11/05 06:17:16;;;;;;;1.90;0.20;;;16.00;68.90;;;;;;5019401;28;20171;-69
2023/11/05 06:19:42;;;;;;;0.70;0.30;;;16.00;68.90;;;;;;5018339;28;20030;-69
2023/11/05 06:22:08;;;;;;;0.20;0.20;;;16.00;68.90;;;;;;5019550;28;20120;-69
2023/11/05 06:24:33;;;;;;;0.20;0.20;;;16.00;68.80;;;;;;5019374;28;20520;-68
2023/11/05 06:26:59;;;;;;;0.57;0.30;;;16.00;68.90;;;;;;5018100;28;20030;-69
2023/11/05 06:29:24;;;;;;;0.55;0.20;;;16.00;68.90;;;;;;5023499;28;20318;-67
2023/11/05 06:31:51;;;;;;;0.43;0.20;;;16.00;68.80;;;;;;5024074;28;20033;-69
2023/11/05 06:34:16;;;;;;;0.30;0.30;;;16.00;68.80;;;;;;5024132;28;20087;-68
2023/11/05 06:36:55;;;;;;;0.63;0.40;;;16.00;68.80;;;;;;5022443;28;20126;-68
2023/11/05 06:39:21;;;;;;;0.65;0.30;;;16.00;68.90;;;;;;5020903;28;20044;-68
2023/11/05 06:41:47;;;;;;;1.40;0.40;;;16.00;68.90;;;;;;5021503;28;20033;-67
2023/11/05 06:44:12;;;;;;;0.45;0.30;;;16.00;68.90;;;;;;5021700;28;20171;-68
2023/11/05 06:46:38;;;;;;;0.57;0.20;;;16.00;68.90;;;;;;5021267;28;20942;-69
2023/11/05 06:49:04;;;;;;;0.35;0.20;;;16.00;68.90;;;;;;5018282;28;20022;-66
2023/11/05 06:51:29;;;;;;;0.68;0.55;;;16.00;68.90;;;;;;5019008;28;20033;-68
2023/11/05 06:53:54;;;;;;;1.60;0.20;;;16.00;68.90;;;;;;5019296;28;20040;-69
2023/11/05 06:56:20;;;;;;;0.20;0.20;;;16.00;68.90;;;;;;5019122;28;20614;-69
2023/11/05 06:58:47;;;;;;;0.22;0.20;;;16.00;68.90;;;;;;5027849;28;20037;-68
2023/11/05 07:01:13;;;;;;;0.65;0.30;;;16.00;68.90;;;;;;5024828;28;20086;-67
2023/11/05 07:03:39;;;;;;;0.35;0.25;;;16.00;68.90;;;;;;5025786;28;20112;-67
2023/11/05 07:06:05;;;;;;;0.30;0.30;;;16.00;68.80;;;;;;5025696;28;20105;-68
2023/11/05 07:08:31;;;;;;;0.40;0.30;;;16.00;68.90;;;;;;5024682;28;20040;-68
2023/11/05 07:10:56;;;;;;;0.22;0.22;;;16.00;68.90;;;;;;5025559;28;20030;-65
2023/11/05 07:13:22;;;;;;;0.90;0.30;;;16.00;68.80;;;;;;5026259;28;20276;-66
2023/11/05 07:15:48;;;;;;;0.45;0.32;;;16.00;68.90;;;;;;5025487;28;20025;-68
2023/11/05 07:18:13;;;;;;;0.70;0.20;;;16.00;68.80;;;;;;5022749;28;20029;-68
2023/11/05 07:20:39;;;;;;;0.25;0.20;;;16.00;68.80;;;;;;5022918;28;20041;-69
2023/11/05 07:23:04;;;;;;;0.80;0.20;;;16.00;68.80;;;;;;5017854;28;20040;-68
2023/11/05 07:25:30;;;;;;;0.45;0.35;;;16.00;68.80;;;;;;5024950;28;20021;-69
2023/11/05 07:27:56;;;;;;;0.22;0.13;;;16.00;68.80;;;;;;5025136;28;20411;-70
2023/11/05 07:30:21;;;;;;;0.30;0.20;;;16.00;68.80;;;;;;5026242;28;20031;-68
2023/11/05 07:32:48;;;;;;;0.63;0.22;;;16.00;68.80;;;;;;5025645;28;20034;-66
2023/11/05 07:35:13;;;;;;;0.50;0.40;;;16.00;68.80;;;;;;5023680;28;20026;-68
2023/11/05 07:37:39;;;;;;;2.20;0.55;;;16.00;68.80;;;;;;5023658;28;20249;-68
2023/11/05 07:40:06;;;;;;;0.25;0.17;;;16.00;68.80;;;;;;5023477;28;20076;-69
2023/11/05 07:42:32;;;;;;;0.80;0.40;;;16.00;68.80;;;;;;5021892;28;20042;-69
2023/11/05 07:44:58;;;;;;;0.70;0.30;;;16.00;68.80;;;;;;5022386;28;20048;-69
2023/11/05 07:47:23;;;;;;;0.22;0.22;;;16.00;68.90;;;;;;5018577;28;20026;-69
2023/11/05 07:49:49;;;;;;;0.88;0.30;;;16.00;68.80;;;;;;5023459;28;20035;-66
2023/11/05 07:52:14;;;;;;;0.63;0.40;;;16.00;68.80;;;;;;5018205;28;20044;-68
2023/11/05 07:54:40;;;;;;;0.40;0.30;;;16.00;68.90;;;;;;5022440;28;20033;-68
2023/11/05 07:57:05;;;;;;;0.20;0.15;;;16.00;68.80;;;;;;5024211;28;20462;-69
2023/11/05 07:59:31;;;;;;;0.93;0.47;;;16.00;68.80;;;;;;5025139;28;20033;-66
2023/11/05 08:02:00;;;;;;;0.43;0.30;;;16.00;68.90;;;;;;5024001;28;20076;-64
2023/11/05 08:04:25;;;;;;;1.95;0.20;;;16.00;68.90;;;;;;5022664;28;20056;-67
2023/11/05 08:06:51;;;;;;;1.00;0.40;;;16.00;68.80;;;;;;5022923;28;20507;-66
2023/11/05 08:09:16;;;;;;;1.95;0.40;;;16.00;68.90;;;;;;5023936;28;20045;-66
2023/11/05 08:11:43;;;;;;;0.40;0.30;;;16.00;68.90;;;;;;5023061;28;20044;-66
2023/11/05 08:14:09;;;;;;;0.88;0.50;;;16.00;68.90;;;;;;5023358;28;20458;-67
2023/11/05 08:16:37;;;;;;;0.93;0.60;;;16.00;68.90;;;;;;5022985;28;20063;-67
2023/11/05 08:19:03;;;;;;;1.00;0.80;;;16.00;69.00;;;;;;5022188;28;20025;-67
2023/11/05 08:21:29;;;;;;;1.90;1.10;;;16.00;69.00;;;;;;5017298;28;20026;-64
2023/11/05 08:23:54;;;;;;;1.85;0.77;;;16.00;69.10;;;;;;5022294;28;20491;-68
2023/11/05 08:26:20;;;;;;;2.80;0.98;;;16.00;69.10;;;;;;5025381;28;20021;-67
2023/11/05 08:28:45;;;;;;;1.70;0.90;;;16.00;69.10;;;;;;5025210;28;20413;-69
2023/11/05 08:31:11;;;;;;;2.17;1.27;;;16.00;69.20;;;;;;5021470;28;20109;-68
2023/11/05 08:33:39;;;;;;;5.88;1.38;;;16.00;69.10;;;;;;5022307;28;20052;-67
2023/11/05 08:36:06;;;;;;;2.38;1.15;;;16.00;69.10;;;;;;5021863;28;20037;-68
2023/11/05 08:38:32;;;;;;;1.20;1.00;;;16.00;69.10;;;;;;5022910;28;20033;-69
2023/11/05 08:40:57;;;;;;;3.30;1.35;;;16.00;69.10;;;;;;5020233;28;20055;-68
2023/11/05 08:43:23;;;;;;;3.50;1.20;;;16.00;69.10;;;;;;5021170;28;20451;-67
2023/11/05 08:45:48;;;;;;;2.35;1.40;;;16.00;69.10;;;;;;5024322;28;20124;-68
2023/11/05 08:48:15;;;;;;;2.85;1.60;;;16.00;69.10;;;;;;5020848;28;20041;-68
2023/11/05 08:50:41;;;;;;;1.88;1.33;;;16.00;69.10;;;;;;5015398;28;20523;-68
2023/11/05 08:53:07;;;;;;;2.72;1.70;;;16.00;69.10;;;;;;5022832;28;20517;-64
2023/11/05 08:55:35;;;;;;;3.58;1.48;;;16.00;69.00;;;;;;5021545;28;20489;-68
2023/11/05 08:58:00;;;;;;;2.13;1.20;;;16.00;69.00;;;;;;5024653;28;20044;-69
2023/11/05 09:00:28;;;;;;;3.55;1.48;;;16.00;69.10;;;;;;5019731;28;20025;-70
2023/11/05 09:02:54;;;;;;;2.13;1.20;;;16.00;69.10;;;;;;5022164;28;20030;-69
2023/11/05 09:05:23;;;;;;;3.75;1.80;;;16.00;69.10;;;;;;5013117;28;20528;-69
2023/11/05 09:07:52;;;;;;;3.83;1.58;;;16.00;69.10;;;;;;5024245;28;20038;-68
2023/11/05 09:10:21;;;;;;;2.58;1.70;;;16.00;69.00;;;;;;5016527;28;20538;-69
2023/11/05 09:12:50;;;;;;;3.38;1.52;;;16.00;69.00;;;;;;5020130;28;20406;-70
2023/11/05 09:15:16;;;;;;;3.28;1.52;;;16.00;69.00;;;;;;5019774;28;20029;-69
2023/11/05 09:17:41;;;;;;;3.35;1.48;;;16.00;69.00;;;;;;5020417;28;20104;-68
2023/11/05 09:20:09;;;;;;;3.33;2.00;;;16.00;69.00;;;;;;5014969;28;20469;-69
2023/11/05 09:22:36;;;;;;;2.05;1.48;;;16.00;69.00;;;;;;5020723;28;20491;-65
2023/11/05 09:25:04;;;;;;;6.25;2.15;;;16.00;69.00;;;;;;5023779;28;20455;-62
2023/11/05 09:27:30;;;;;;;2.35;1.42;;;16.00;69.10;;;;;;5023770;28;20092;-67
2023/11/05 09:29:55;;;;;;;4.65;1.98;;;16.00;69.20;;;;;;5024290;28;20621;-68
2023/11/05 09:32:21;;;;;;;4.88;2.05;;;16.00;69.20;;;;;;5018210;28;20029;-69
2023/11/05 09:34:47;;;;;;;6.63;2.60;;;16.00;69.20;;;;;;5022605;28;20081;-66
2023/11/05 09:37:12;;;;;;;7.88;2.47;;;16.00;69.20;;;;;;5021743;28;20128;-68
2023/11/05 09:39:38;;;;;;;4.03;2.30;;;16.00;69.20;;;;;;5026932;28;20099;-69
2023/11/05 09:42:04;;;;;;;4.95;2.42;;;16.00;69.20;;;;;;5028652;28;20037;-69
2023/11/05 09:44:29;;;;;;;5.78;2.45;;;16.00;69.20;;;;;;5024088;28;20664;-70
2023/11/05 09:46:58;;;;;;;5.55;2.38;;;16.00;69.20;;;;;;5032870;28;20111;-69
2023/11/05 09:49:24;;;;;;;4.38;1.73;;;16.00;69.20;;;;;;5033024;28;20681;-69
2023/11/05 09:51:50;;;;;;;6.38;2.67;;;16.00;69.20;;;;;;5035493;28;20435;-68
2023/11/05 09:54:16;;;;;;;4.90;2.35;;;16.00;69.30;;;;;;5029281;28;20064;-69
2023/11/05 09:56:42;;;;;;;5.55;2.55;;;16.00;69.20;;;;;;5034397;28;20488;-69
2023/11/05 09:59:10;;;;;;;5.40;2.17;;;16.00;69.80;;;;;;5031374;28;20041;-69
2023/11/05 10:01:36;;;;;;;5.70;1.90;;;16.00;69.20;;;;;;5030183;28;20386;-69
2023/11/05 10:04:11;;;;;;;10.15;2.83;;;16.00;69.20;;;;;;5031403;28;20125;-69
2023/11/05 10:06:36;;;;;;;5.45;2.50;;;16.00;69.20;;;;;;5028582;28;20403;-68
2023/11/05 10:09:04;;;;;;;8.48;2.78;;;16.10;69.30;;;;;;5032971;28;20041;-70
2023/11/05 10:11:30;;;;;;;5.53;2.25;;;16.10;70.00;;;;;;5026426;28;20121;-70
2023/11/05 10:13:56;;;;;;;7.38;2.80;;;16.10;69.30;;;;;;5026421;28;20398;-69
2023/11/05 10:16:25;;;;;;;6.18;2.47;;;16.10;69.30;;;;;;5027895;28;20043;-65
2023/11/05 10:18:56;;;;;;;4.68;2.13;;;16.10;69.20;;;;;;5028698;28;20030;-66
2023/11/05 10:21:35;;;;;;;6.88;2.47;;;16.10;69.20;;;;;;5023029;28;20037;-69
2023/11/05 10:24:01;;;;;;;4.28;2.08;;;16.10;69.20;;;;;;5020600;28;20029;-68
2023/11/05 10:26:30;;;;;;;3.53;2.17;;;16.10;69.30;;;;;;5025188;28;20391;-70
2023/11/05 10:28:57;;;;;;;6.32;2.45;;;16.10;69.20;;;;;;5026246;28;20029;-69
2023/11/05 10:31:24;;;;;;;4.63;2.03;;;16.10;69.20;;;;;;5030133;28;20507;-69
2023/11/05 10:33:54;;;;;;;3.17;1.80;;;16.10;69.20;;;;;;5031198;28;20101;-70
2023/11/05 10:36:20;;;;;;;8.77;1.95;;;16.10;69.10;;;;;;5026705;28;20372;-70
2023/11/05 10:38:49;;;;;;;8.90;2.30;;;16.10;69.00;;;;;;5032114;28;20038;-69
2023/11/05 10:41:17;;;;;;;6.30;2.17;;;16.10;69.00;;;;;;5030912;28;20050;-69
2023/11/05 10:43:50;;;;;;;5.72;1.90;;;16.10;69.00;;;;;;5029832;28;20531;-69
2023/11/05 10:46:20;;;;;;;3.50;1.75;;;16.10;69.00;;;;;;5030854;28;20045;-69
2023/11/05 10:48:49;;;;;;;4.38;1.77;;;16.10;68.90;;;;;;5029672;28;20079;-67
2023/11/05 10:51:19;;;;;;;4.43;2.05;;;16.10;68.90;;;;;;5028118;28;20035;-67
2023/11/05 10:53:47;;;;;;;4.45;1.85;;;16.10;68.80;;;;;;5025952;28;20029;-67
2023/11/05 10:56:34;;;;;;;4.38;1.83;;;16.10;68.80;;;;;;5024931;28;20055;-67
2023/11/05 10:59:02;;;;;;;6.20;1.50;;;16.10;68.80;;;;;;5019785;28;20036;-68
2023/11/05 11:01:29;;;;;;;6.00;1.65;;;16.10;68.70;;;;;;5026572;28;20025;-70
2023/11/05 11:04:17;;;;;;;5.18;1.73;;;16.20;68.70;;;;;;5027101;28;20055;-69
2023/11/05 11:06:44;;;;;;;3.50;1.73;;;16.10;68.60;;;;;;5031456;28;20041;-67
2023/11/05 11:09:22;;;;;;;5.85;1.58;;;16.20;68.60;;;;;;5030488;28;20108;-64
2023/11/05 11:11:48;;;;;;;4.82;1.52;;;16.10;68.50;;;;;;5026789;28;20103;-70
2023/11/05 11:14:14;;;;;;;3.75;1.40;;;16.10;68.50;;;;;;5030843;28;20558;-69
2023/11/05 11:16:42;;;;;;;3.05;1.27;;;16.10;68.50;;;;;;5019057;28;20141;-69
2023/11/05 11:19:16;;;;;;;3.33;1.35;;;16.10;68.40;;;;;;5026442;28;20392;-68
2023/11/05 11:21:59;;;;;;;3.63;1.67;;;16.10;68.50;;;;;;5023841;28;20030;-70
2023/11/05 11:24:40;;;;;;;5.95;1.42;;;16.10;68.50;;;;;;5025880;28;20026;-66
2023/11/05 11:27:07;;;;;;;3.17;1.20;;;16.10;68.50;;;;;;5027671;28;20287;-68
2023/11/05 11:29:37;;;;;;;4.30;1.40;;;16.10;68.50;;;;;;5030252;28;20112;-71
2023/11/05 11:32:03;;;;;;;2.90;1.20;;;16.10;68.60;;;;;;5027537;28;20029;-69
2023/11/05 11:34:31;;;;;;;3.03;1.00;;;16.10;68.60;;;;;;5030724;28;20026;-69
2023/11/05 11:37:01;;;;;;;3.95;1.30;;;16.10;68.60;;;;;;5031839;28;20056;-68
2023/11/05 11:39:28;;;;;;;4.70;1.42;;;16.10;68.60;;;;;;5027566;28;20034;-69
2023/11/05 11:41:54;;;;;;;2.83;1.05;;;16.10;68.60;;;;;;5029325;28;20557;-62
2023/11/05 11:44:20;;;;;;;4.88;1.77;;;16.10;68.70;;;;;;5027345;28;20487;-69
2023/11/05 11:46:47;;;;;;;3.78;1.60;;;16.10;68.60;;;;;;5034458;28;20025;-67
2023/11/05 11:49:13;;;;;;;3.40;1.02;;;16.10;68.60;;;;;;5033910;28;20551;-67
2023/11/05 11:51:39;;;;;;;3.72;1.20;;;16.10;68.70;;;;;;5032569;28;20033;-69
2023/11/05 11:54:05;;;;;;;1.92;1.10;;;16.10;68.70;;;;;;5033547;28;20083;-70
2023/11/05 11:56:31;;;;;;;3.60;1.40;;;16.10;68.70;;;;;;5033177;28;20297;-64
2023/11/05 11:59:04;;;;;;;2.10;1.20;;;16.00;68.70;;;;;;5035124;28;20035;-69
2023/11/05 12:01:30;;;;;;;3.47;1.10;;;16.00;68.70;;;;;;5033663;28;20064;-69
2023/11/05 12:03:57;;;;;;;2.30;0.98;;;16.10;68.80;;;;;;5034324;28;20584;-69
2023/11/05 12:06:23;;;;;;;1.65;0.77;;;16.10;68.80;;;;;;5033779;28;20095;-69
2023/11/05 12:08:52;;;;;;;4.85;1.00;;;16.10;68.80;;;;;;5030246;28;20029;-68
2023/11/05 12:11:18;;;;;;;3.47;1.10;;;16.10;68.80;;;;;;5033748;28;20022;-70
2023/11/05 12:13:46;;;;;;;3.28;1.25;;;16.10;68.90;;;;;;5023678;28;20022;-67
2023/11/05 12:16:13;;;;;;;2.15;1.40;;;16.10;68.90;;;;;;5043708;28;20059;-69
2023/11/05 12:18:41;;;;;;;2.20;1.25;;;16.10;68.90;;;;;;5032618;28;20474;-69
2023/11/05 12:21:08;;;;;;;3.85;1.02;;;16.10;69.00;;;;;;5034078;28;20033;-67
2023/11/05 12:23:35;;;;;;;3.00;1.13;;;16.10;69.00;;;;;;5030151;28;20051;-72
2023/11/05 12:26:07;;;;;;;2.17;0.80;;;16.10;69.00;;;;;;5033402;28;20407;-68
2023/11/05 12:28:33;;;;;;;2.25;0.90;;;16.10;69.10;;;;;;5032981;28;20033;-69
2023/11/05 12:31:03;;;;;;;2.10;1.15;;;16.10;69.10;;;;;;5028518;28;20025;-68
2023/11/05 12:33:33;;;;;;;1.67;0.75;;;16.10;69.10;;;;;;5030575;28;20034;-67
2023/11/05 12:35:59;;;;;;;2.55;1.63;;;16.10;69.10;;;;;;5032396;28;20087;-65
2023/11/05 12:38:25;;;;;;;2.78;0.95;;;16.10;69.10;;;;;;5029975;28;20057;-68
2023/11/05 12:40:52;;;;;;;2.38;0.90;;;16.10;69.10;;;;;;5029098;28;20041;-67
2023/11/05 12:43:18;;;;;;;2.78;0.77;;;16.10;69.10;;;;;;5026931;28;20120;-66